sensor_id;sensor_type;location;lat;lon;timestamp;temperature;humidity
70734;DHT22;58320;48.804;9.252;2024-01-27T00:00:26;2.80;82.20
70734;DHT22;58320;48.804;9.252;2024-01-27T00:02:52;2.80;82.50
70734;DHT22;58320;48.804;9.252;2024-01-27T00:05:17;2.80;82.80
70734;DHT22;58320;48.804;9.252;2024-01-27T00:07:43;2.80;83.10
70734;DHT22;58320;48.804;9.252;2024-01-27T00:10:09;2.80;82.70
70734;DHT22;58320;48.804;9.252;2024-01-27T00:12:35;2.90;82.30
70734;DHT22;58320;48.804;9.252;2024-01-27T00:15:01;2.90;82.00
70734;DHT22;58320;48.804;9.252;2024-01-27T00:17:27;3.00;82.00
70734;DHT22;58320;48.804;9.252;2024-01-27T00:19:53;3.00;81.80
70734;DHT22;58320;48.804;9.252;2024-01-27T00:22:20;2.90;81.80
70734;DHT22;58320;48.804;9.252;2024-01-27T00:24:46;2.80;82.00
70734;DHT22;58320;48.804;9.252;2024-01-27T00:27:12;2.80;82.50
70734;DHT22;58320;48.804;9.252;2024-01-27T00:29:38;2.70;82.90
70734;DHT22;58320;48.804;9.252;2024-01-27T00:32:03;2.70;83.30
70734;DHT22;58320;48.804;9.252;2024-01-27T00:34:29;2.70;83.90
70734;DHT22;58320;48.804;9.252;2024-01-27T00:36:55;2.70;83.70
70734;DHT22;58320;48.804;9.252;2024-01-27T00:39:20;2.70;83.60
70734;DHT22;58320;48.804;9.252;2024-01-27T00:41:46;2.70;83.60
70734;DHT22;58320;48.804;9.252;2024-01-27T00:44:12;2.70;83.60
70734;DHT22;58320;48.804;9.252;2024-01-27T00:46:38;2.60;83.40
70734;DHT22;58320;48.804;9.252;2024-01-27T00:49:04;2.60;83.60
70734;DHT22;58320;48.804;9.252;2024-01-27T00:51:30;2.60;84.10
70734;DHT22;58320;48.804;9.252;2024-01-27T00:53:55;2.50;84.30
70734;DHT22;58320;48.804;9.252;2024-01-27T00:56:21;2.50;84.70
70734;DHT22;58320;48.804;9.252;2024-01-27T00:58:47;2.50;84.80
70734;DHT22;58320;48.804;9.252;2024-01-27T01:01:13;2.40;84.80
70734;DHT22;58320;48.804;9.252;2024-01-27T01:03:38;2.30;85.30
70734;DHT22;58320;48.804;9.252;2024-01-27T01:06:04;2.30;85.60
70734;DHT22;58320;48.804;9.252;2024-01-27T01:08:31;2.30;86.00
70734;DHT22;58320;48.804;9.252;2024-01-27T01:10:57;2.30;86.10
70734;DHT22;58320;48.804;9.252;2024-01-27T01:13:23;2.20;86.10
70734;DHT22;58320;48.804;9.252;2024-01-27T01:15:49;2.20;86.40
70734;DHT22;58320;48.804;9.252;2024-01-27T01:18:14;2.10;86.60
70734;DHT22;58320;48.804;9.252;2024-01-27T01:20:40;2.10;86.80
70734;DHT22;58320;48.804;9.252;2024-01-27T01:23:06;2.10;87.00
70734;DHT22;58320;48.804;9.252;2024-01-27T01:25:32;2.00;87.00
70734;DHT22;58320;48.804;9.252;2024-01-27T01:27:57;2.00;87.40
70734;DHT22;58320;48.804;9.252;2024-01-27T01:30:23;1.90;87.40
70734;DHT22;58320;48.804;9.252;2024-01-27T01:32:49;1.90;87.40
70734;DHT22;58320;48.804;9.252;2024-01-27T01:35:15;1.90;87.50
70734;DHT22;58320;48.804;9.252;2024-01-27T01:37:41;1.90;87.60
70734;DHT22;58320;48.804;9.252;2024-01-27T01:40:07;1.80;87.80
70734;DHT22;58320;48.804;9.252;2024-01-27T01:42:33;1.80;87.80
70734;DHT22;58320;48.804;9.252;2024-01-27T01:44:59;1.80;88.00
70734;DHT22;58320;48.804;9.252;2024-01-27T01:47:25;1.80;88.00
70734;DHT22;58320;48.804;9.252;2024-01-27T01:49:52;1.80;88.20
70734;DHT22;58320;48.804;9.252;2024-01-27T01:52:20;1.80;88.20
70734;DHT22;58320;48.804;9.252;2024-01-27T01:54:50;1.80;88.50
70734;DHT22;58320;48.804;9.252;2024-01-27T01:57:16;1.80;88.60
70734;DHT22;58320;48.804;9.252;2024-01-27T01:59:42;1.70;88.80
70734;DHT22;58320;48.804;9.252;2024-01-27T02:02:09;1.80;88.80
70734;DHT22;58320;48.804;9.252;2024-01-27T02:07:11;1.70;89.20
70734;DHT22;58320;48.804;9.252;2024-01-27T02:09:37;1.70;89.50
70734;DHT22;58320;48.804;9.252;2024-01-27T02:12:03;1.80;89.30
70734;DHT22;58320;48.804;9.252;2024-01-27T02:14:29;1.80;89.40
70734;DHT22;58320;48.804;9.252;2024-01-27T02:16:56;1.80;89.10
70734;DHT22;58320;48.804;9.252;2024-01-27T02:19:23;1.90;89.00
70734;DHT22;58320;48.804;9.252;2024-01-27T02:21:48;1.90;88.80
70734;DHT22;58320;48.804;9.252;2024-01-27T02:24:14;1.90;88.70
70734;DHT22;58320;48.804;9.252;2024-01-27T02:26:40;1.80;88.60
70734;DHT22;58320;48.804;9.252;2024-01-27T02:29:05;1.80;88.60
70734;DHT22;58320;48.804;9.252;2024-01-27T02:31:31;1.70;88.90
70734;DHT22;58320;48.804;9.252;2024-01-27T02:33:57;1.70;89.10
70734;DHT22;58320;48.804;9.252;2024-01-27T02:36:23;1.60;89.20
70734;DHT22;58320;48.804;9.252;2024-01-27T02:38:48;1.60;89.30
70734;DHT22;58320;48.804;9.252;2024-01-27T02:41:14;1.50;89.50
70734;DHT22;58320;48.804;9.252;2024-01-27T02:43:40;1.50;90.00
70734;DHT22;58320;48.804;9.252;2024-01-27T02:46:12;1.50;90.40
70734;DHT22;58320;48.804;9.252;2024-01-27T02:48:42;1.50;90.60
70734;DHT22;58320;48.804;9.252;2024-01-27T02:51:08;1.60;90.60
70734;DHT22;58320;48.804;9.252;2024-01-27T02:53:34;1.60;90.40
70734;DHT22;58320;48.804;9.252;2024-01-27T02:55:59;1.60;90.10
70734;DHT22;58320;48.804;9.252;2024-01-27T02:58:25;1.50;89.60
70734;DHT22;58320;48.804;9.252;2024-01-27T03:00:51;1.50;89.80
70734;DHT22;58320;48.804;9.252;2024-01-27T03:03:17;1.40;90.10
70734;DHT22;58320;48.804;9.252;2024-01-27T03:05:42;1.40;90.20
70734;DHT22;58320;48.804;9.252;2024-01-27T03:08:09;1.30;89.70
70734;DHT22;58320;48.804;9.252;2024-01-27T03:10:34;1.30;90.20
70734;DHT22;58320;48.804;9.252;2024-01-27T03:13:00;1.30;90.30
70734;DHT22;58320;48.804;9.252;2024-01-27T03:15:26;1.30;90.60
70734;DHT22;58320;48.804;9.252;2024-01-27T03:17:52;1.30;90.70
70734;DHT22;58320;48.804;9.252;2024-01-27T03:20:17;1.30;90.90
70734;DHT22;58320;48.804;9.252;2024-01-27T03:22:43;1.30;90.90
70734;DHT22;58320;48.804;9.252;2024-01-27T03:25:10;1.20;90.90
70734;DHT22;58320;48.804;9.252;2024-01-27T03:27:36;1.20;90.60
70734;DHT22;58320;48.804;9.252;2024-01-27T03:30:03;1.20;90.90
70734;DHT22;58320;48.804;9.252;2024-01-27T03:32:29;1.20;90.90
70734;DHT22;58320;48.804;9.252;2024-01-27T03:35:00;1.20;91.00
70734;DHT22;58320;48.804;9.252;2024-01-27T03:37:26;1.20;90.90
70734;DHT22;58320;48.804;9.252;2024-01-27T03:39:52;1.20;90.70
70734;DHT22;58320;48.804;9.252;2024-01-27T03:42:18;1.20;90.60
70734;DHT22;58320;48.804;9.252;2024-01-27T03:44:43;1.20;90.60
70734;DHT22;58320;48.804;9.252;2024-01-27T03:47:09;1.20;90.60
70734;DHT22;58320;48.804;9.252;2024-01-27T03:49:35;1.20;90.80
70734;DHT22;58320;48.804;9.252;2024-01-27T03:52:01;1.20;91.00
70734;DHT22;58320;48.804;9.252;2024-01-27T03:54:26;1.20;90.90
70734;DHT22;58320;48.804;9.252;2024-01-27T03:56:52;1.20;91.00
70734;DHT22;58320;48.804;9.252;2024-01-27T03:59:19;1.20;91.20
70734;DHT22;58320;48.804;9.252;2024-01-27T04:03:35;-50.00;1.00
70734;DHT22;58320;48.804;9.252;2024-01-27T04:06:01;1.20;91.00
70734;DHT22;58320;48.804;9.252;2024-01-27T04:08:29;1.10;90.80
70734;DHT22;58320;48.804;9.252;2024-01-27T04:10:58;1.10;90.70
70734;DHT22;58320;48.804;9.252;2024-01-27T04:13:23;1.10;90.70
70734;DHT22;58320;48.804;9.252;2024-01-27T04:15:49;1.00;90.80
70734;DHT22;58320;48.804;9.252;2024-01-27T04:18:16;1.00;91.00
70734;DHT22;58320;48.804;9.252;2024-01-27T04:20:42;0.90;91.20
70734;DHT22;58320;48.804;9.252;2024-01-27T04:23:09;0.90;91.30
70734;DHT22;58320;48.804;9.252;2024-01-27T04:25:34;0.80;91.50
70734;DHT22;58320;48.804;9.252;2024-01-27T04:28:00;0.80;91.50
70734;DHT22;58320;48.804;9.252;2024-01-27T04:30:26;0.70;91.90
70734;DHT22;58320;48.804;9.252;2024-01-27T04:32:51;0.60;91.90
70734;DHT22;58320;48.804;9.252;2024-01-27T04:35:17;0.60;92.20
70734;DHT22;58320;48.804;9.252;2024-01-27T04:37:44;0.50;92.50
70734;DHT22;58320;48.804;9.252;2024-01-27T04:40:10;0.50;92.70
70734;DHT22;58320;48.804;9.252;2024-01-27T04:42:38;0.50;92.90
70734;DHT22;58320;48.804;9.252;2024-01-27T04:45:05;0.50;93.10
70734;DHT22;58320;48.804;9.252;2024-01-27T04:47:31;0.40;93.30
70734;DHT22;58320;48.804;9.252;2024-01-27T04:49:57;0.40;93.60
70734;DHT22;58320;48.804;9.252;2024-01-27T04:52:23;0.40;93.90
70734;DHT22;58320;48.804;9.252;2024-01-27T04:54:49;0.40;93.90
70734;DHT22;58320;48.804;9.252;2024-01-27T04:57:15;0.40;93.90
70734;DHT22;58320;48.804;9.252;2024-01-27T04:59:41;0.40;94.00
70734;DHT22;58320;48.804;9.252;2024-01-27T05:02:07;0.40;94.10
70734;DHT22;58320;48.804;9.252;2024-01-27T05:04:33;0.40;94.30
70734;DHT22;58320;48.804;9.252;2024-01-27T05:06:58;0.30;94.20
70734;DHT22;58320;48.804;9.252;2024-01-27T05:09:24;0.30;94.10
70734;DHT22;58320;48.804;9.252;2024-01-27T05:11:50;0.30;94.00
70734;DHT22;58320;48.804;9.252;2024-01-27T05:14:19;0.20;94.10
70734;DHT22;58320;48.804;9.252;2024-01-27T05:16:45;0.20;94.20
70734;DHT22;58320;48.804;9.252;2024-01-27T05:19:11;0.10;94.30
70734;DHT22;58320;48.804;9.252;2024-01-27T05:21:37;0.10;94.60
70734;DHT22;58320;48.804;9.252;2024-01-27T05:24:04;0.10;94.90
70734;DHT22;58320;48.804;9.252;2024-01-27T05:26:30;0.00;94.90
70734;DHT22;58320;48.804;9.252;2024-01-27T05:28:56;0.00;94.90
70734;DHT22;58320;48.804;9.252;2024-01-27T05:31:21;0.00;94.90
70734;DHT22;58320;48.804;9.252;2024-01-27T05:33:47;0.00;95.10
70734;DHT22;58320;48.804;9.252;2024-01-27T05:36:13;-0.10;95.10
70734;DHT22;58320;48.804;9.252;2024-01-27T05:38:39;-0.10;95.00
70734;DHT22;58320;48.804;9.252;2024-01-27T05:41:04;-0.20;95.10
70734;DHT22;58320;48.804;9.252;2024-01-27T05:43:30;-0.20;95.20
70734;DHT22;58320;48.804;9.252;2024-01-27T05:45:56;-0.20;95.30
70734;DHT22;58320;48.804;9.252;2024-01-27T05:48:21;-0.20;95.40
70734;DHT22;58320;48.804;9.252;2024-01-27T05:50:58;-0.30;95.50
70734;DHT22;58320;48.804;9.252;2024-01-27T05:53:24;-0.30;95.50
70734;DHT22;58320;48.804;9.252;2024-01-27T05:55:50;-0.30;95.30
70734;DHT22;58320;48.804;9.252;2024-01-27T05:58:17;-0.30;95.80
70734;DHT22;58320;48.804;9.252;2024-01-27T06:00:46;-0.30;96.00
70734;DHT22;58320;48.804;9.252;2024-01-27T06:03:12;-0.40;96.30
70734;DHT22;58320;48.804;9.252;2024-01-27T06:05:38;-0.40;96.50
70734;DHT22;58320;48.804;9.252;2024-01-27T06:08:05;-0.40;96.80
70734;DHT22;58320;48.804;9.252;2024-01-27T06:10:32;-0.30;96.80
70734;DHT22;58320;48.804;9.252;2024-01-27T06:12:58;-0.40;96.80
70734;DHT22;58320;48.804;9.252;2024-01-27T06:15:23;-0.40;96.80
70734;DHT22;58320;48.804;9.252;2024-01-27T06:17:49;-0.40;96.70
70734;DHT22;58320;48.804;9.252;2024-01-27T06:20:15;-0.40;96.70
70734;DHT22;58320;48.804;9.252;2024-01-27T06:22:44;-0.40;96.70
70734;DHT22;58320;48.804;9.252;2024-01-27T06:25:10;-0.50;96.80
70734;DHT22;58320;48.804;9.252;2024-01-27T06:27:38;-0.50;96.80
70734;DHT22;58320;48.804;9.252;2024-01-27T06:30:07;-0.50;96.70
70734;DHT22;58320;48.804;9.252;2024-01-27T06:32:33;-0.50;96.70
70734;DHT22;58320;48.804;9.252;2024-01-27T06:34:58;-0.60;96.70
70734;DHT22;58320;48.804;9.252;2024-01-27T06:37:24;-0.60;96.90
70734;DHT22;58320;48.804;9.252;2024-01-27T06:39:50;-0.60;97.00
70734;DHT22;58320;48.804;9.252;2024-01-27T06:42:16;-0.60;97.10
70734;DHT22;58320;48.804;9.252;2024-01-27T06:44:41;-0.60;97.10
70734;DHT22;58320;48.804;9.252;2024-01-27T06:47:07;-0.70;97.10
70734;DHT22;58320;48.804;9.252;2024-01-27T06:49:33;-0.70;96.80
70734;DHT22;58320;48.804;9.252;2024-01-27T06:51:59;-0.70;96.90
70734;DHT22;58320;48.804;9.252;2024-01-27T06:54:25;-0.70;97.00
70734;DHT22;58320;48.804;9.252;2024-01-27T06:56:51;-0.80;96.90
70734;DHT22;58320;48.804;9.252;2024-01-27T06:59:17;-0.80;96.90
70734;DHT22;58320;48.804;9.252;2024-01-27T07:01:46;-0.80;97.20
70734;DHT22;58320;48.804;9.252;2024-01-27T07:04:15;-0.80;97.20
70734;DHT22;58320;48.804;9.252;2024-01-27T07:06:41;-0.90;97.30
70734;DHT22;58320;48.804;9.252;2024-01-27T07:09:07;-0.80;97.20
70734;DHT22;58320;48.804;9.252;2024-01-27T07:11:35;-0.80;97.30
70734;DHT22;58320;48.804;9.252;2024-01-27T07:14:01;-0.80;97.40
70734;DHT22;58320;48.804;9.252;2024-01-27T07:16:27;-0.80;97.50
70734;DHT22;58320;48.804;9.252;2024-01-27T07:18:53;-0.70;97.40
70734;DHT22;58320;48.804;9.252;2024-01-27T07:21:19;-0.70;97.20
70734;DHT22;58320;48.804;9.252;2024-01-27T07:23:44;-0.70;97.20
70734;DHT22;58320;48.804;9.252;2024-01-27T07:26:11;-0.70;97.00
70734;DHT22;58320;48.804;9.252;2024-01-27T07:28:37;-0.70;96.90
70734;DHT22;58320;48.804;9.252;2024-01-27T07:31:03;-0.70;97.10
70734;DHT22;58320;48.804;9.252;2024-01-27T07:33:30;-0.60;97.30
70734;DHT22;58320;48.804;9.252;2024-01-27T07:35:56;-0.50;97.60
70734;DHT22;58320;48.804;9.252;2024-01-27T07:38:22;-0.40;97.60
70734;DHT22;58320;48.804;9.252;2024-01-27T07:40:48;-0.30;97.60
70734;DHT22;58320;48.804;9.252;2024-01-27T07:43:13;-0.20;97.40
70734;DHT22;58320;48.804;9.252;2024-01-27T07:45:39;-0.10;97.00
70734;DHT22;58320;48.804;9.252;2024-01-27T07:48:05;0.00;96.80
70734;DHT22;58320;48.804;9.252;2024-01-27T07:50:31;0.10;96.60
70734;DHT22;58320;48.804;9.252;2024-01-27T07:52:58;0.10;96.30
70734;DHT22;58320;48.804;9.252;2024-01-27T07:55:23;0.20;95.50
70734;DHT22;58320;48.804;9.252;2024-01-27T07:57:49;0.20;95.30
70734;DHT22;58320;48.804;9.252;2024-01-27T08:00:15;0.30;95.00
70734;DHT22;58320;48.804;9.252;2024-01-27T08:02:41;0.40;95.10
70734;DHT22;58320;48.804;9.252;2024-01-27T08:05:07;0.60;95.00
70734;DHT22;58320;48.804;9.252;2024-01-27T08:07:34;0.70;94.70
70734;DHT22;58320;48.804;9.252;2024-01-27T08:09:59;0.90;94.20
70734;DHT22;58320;48.804;9.252;2024-01-27T08:12:25;1.00;93.30
70734;DHT22;58320;48.804;9.252;2024-01-27T08:14:52;1.10;90.40
70734;DHT22;58320;48.804;9.252;2024-01-27T08:17:19;1.20;89.60
70734;DHT22;58320;48.804;9.252;2024-01-27T08:19:44;1.40;90.30
70734;DHT22;58320;48.804;9.252;2024-01-27T08:22:10;1.50;90.00
70734;DHT22;58320;48.804;9.252;2024-01-27T08:24:36;1.60;89.60
70734;DHT22;58320;48.804;9.252;2024-01-27T08:27:01;1.70;88.10
70734;DHT22;58320;48.804;9.252;2024-01-27T08:29:27;1.70;86.80
70734;DHT22;58320;48.804;9.252;2024-01-27T08:31:53;1.90;86.80
70734;DHT22;58320;48.804;9.252;2024-01-27T08:34:19;2.00;86.40
70734;DHT22;58320;48.804;9.252;2024-01-27T08:36:44;2.20;86.00
70734;DHT22;58320;48.804;9.252;2024-01-27T08:39:11;2.20;84.60
70734;DHT22;58320;48.804;9.252;2024-01-27T08:41:37;2.10;83.60
70734;DHT22;58320;48.804;9.252;2024-01-27T08:44:03;2.20;84.00
70734;DHT22;58320;48.804;9.252;2024-01-27T08:46:29;2.30;83.60
70734;DHT22;58320;48.804;9.252;2024-01-27T08:48:55;2.40;83.60
70734;DHT22;58320;48.804;9.252;2024-01-27T08:51:20;2.50;82.90
70734;DHT22;58320;48.804;9.252;2024-01-27T08:53:46;2.60;81.90
70734;DHT22;58320;48.804;9.252;2024-01-27T08:56:17;2.80;81.90
70734;DHT22;58320;48.804;9.252;2024-01-27T08:58:46;3.00;80.60
70734;DHT22;58320;48.804;9.252;2024-01-27T09:01:18;3.20;79.80
70734;DHT22;58320;48.804;9.252;2024-01-27T09:03:44;3.40;79.60
70734;DHT22;58320;48.804;9.252;2024-01-27T09:06:10;3.40;78.90
70734;DHT22;58320;48.804;9.252;2024-01-27T09:08:36;3.60;78.60
70734;DHT22;58320;48.804;9.252;2024-01-27T09:11:02;3.80;77.50
70734;DHT22;58320;48.804;9.252;2024-01-27T09:13:28;3.90;77.70
70734;DHT22;58320;48.804;9.252;2024-01-27T09:15:56;4.10;77.10
70734;DHT22;58320;48.804;9.252;2024-01-27T09:18:22;4.20;76.70
70734;DHT22;58320;48.804;9.252;2024-01-27T09:20:48;4.20;77.00
70734;DHT22;58320;48.804;9.252;2024-01-27T09:23:14;4.40;77.10
70734;DHT22;58320;48.804;9.252;2024-01-27T09:25:39;4.30;76.40
70734;DHT22;58320;48.804;9.252;2024-01-27T09:28:05;4.40;76.10
70734;DHT22;58320;48.804;9.252;2024-01-27T09:30:31;4.30;75.60
70734;DHT22;58320;48.804;9.252;2024-01-27T09:32:57;4.50;75.60
70734;DHT22;58320;48.804;9.252;2024-01-27T09:35:23;4.70;75.50
70734;DHT22;58320;48.804;9.252;2024-01-27T09:37:48;4.90;74.30
70734;DHT22;58320;48.804;9.252;2024-01-27T09:40:14;4.90;73.80
70734;DHT22;58320;48.804;9.252;2024-01-27T09:42:45;4.80;74.20
70734;DHT22;58320;48.804;9.252;2024-01-27T09:45:19;4.90;74.70
70734;DHT22;58320;48.804;9.252;2024-01-27T09:47:46;5.00;75.30
70734;DHT22;58320;48.804;9.252;2024-01-27T09:50:14;5.20;74.10
70734;DHT22;58320;48.804;9.252;2024-01-27T09:52:39;5.30;73.80
70734;DHT22;58320;48.804;9.252;2024-01-27T09:55:06;5.50;72.80
70734;DHT22;58320;48.804;9.252;2024-01-27T09:57:32;5.30;73.00
70734;DHT22;58320;48.804;9.252;2024-01-27T09:59:58;5.30;73.20
70734;DHT22;58320;48.804;9.252;2024-01-27T10:02:25;5.50;71.90
70734;DHT22;58320;48.804;9.252;2024-01-27T10:04:53;5.50;72.20
70734;DHT22;58320;48.804;9.252;2024-01-27T10:07:20;5.40;72.30
70734;DHT22;58320;48.804;9.252;2024-01-27T10:09:51;5.60;71.60
70734;DHT22;58320;48.804;9.252;2024-01-27T10:12:18;5.60;71.40
70734;DHT22;58320;48.804;9.252;2024-01-27T10:14:44;5.60;71.90
70734;DHT22;58320;48.804;9.252;2024-01-27T10:17:12;5.80;71.70
70734;DHT22;58320;48.804;9.252;2024-01-27T10:19:38;6.00;70.50
70734;DHT22;58320;48.804;9.252;2024-01-27T10:22:03;6.10;70.60
70734;DHT22;58320;48.804;9.252;2024-01-27T10:24:31;6.30;70.10
70734;DHT22;58320;48.804;9.252;2024-01-27T10:27:03;6.40;68.80
70734;DHT22;58320;48.804;9.252;2024-01-27T10:29:30;6.40;68.20
70734;DHT22;58320;48.804;9.252;2024-01-27T10:32:07;6.30;68.10
70734;DHT22;58320;48.804;9.252;2024-01-27T10:34:34;6.50;68.50
70734;DHT22;58320;48.804;9.252;2024-01-27T10:36:59;6.70;67.50
70734;DHT22;58320;48.804;9.252;2024-01-27T10:39:25;6.80;66.90
70734;DHT22;58320;48.804;9.252;2024-01-27T10:41:51;6.70;67.60
70734;DHT22;58320;48.804;9.252;2024-01-27T10:44:18;6.80;67.50
70734;DHT22;58320;48.804;9.252;2024-01-27T10:46:46;7.00;66.60
70734;DHT22;58320;48.804;9.252;2024-01-27T10:49:14;7.00;65.30
70734;DHT22;58320;48.804;9.252;2024-01-27T10:51:45;7.20;64.90
70734;DHT22;58320;48.804;9.252;2024-01-27T10:54:23;7.40;64.70
70734;DHT22;58320;48.804;9.252;2024-01-27T10:56:53;7.30;64.40
70734;DHT22;58320;48.804;9.252;2024-01-27T10:59:21;7.50;64.50
70734;DHT22;58320;48.804;9.252;2024-01-27T11:01:49;7.80;64.20
70734;DHT22;58320;48.804;9.252;2024-01-27T11:04:19;7.90;62.60
70734;DHT22;58320;48.804;9.252;2024-01-27T11:06:47;7.90;62.90
70734;DHT22;58320;48.804;9.252;2024-01-27T11:09:14;8.40;61.40
70734;DHT22;58320;48.804;9.252;2024-01-27T11:11:44;9.20;58.00
70734;DHT22;58320;48.804;9.252;2024-01-27T11:14:11;9.80;56.90
70734;DHT22;58320;48.804;9.252;2024-01-27T11:16:37;10.50;55.20
70734;DHT22;58320;48.804;9.252;2024-01-27T11:19:14;10.90;53.30
70734;DHT22;58320;48.804;9.252;2024-01-27T11:21:42;11.40;52.20
70734;DHT22;58320;48.804;9.252;2024-01-27T11:26:40;12.40;49.80
70734;DHT22;58320;48.804;9.252;2024-01-27T11:29:08;12.20;50.10
70734;DHT22;58320;48.804;9.252;2024-01-27T11:31:35;12.40;49.50
70734;DHT22;58320;48.804;9.252;2024-01-27T11:34:00;12.60;49.30
70734;DHT22;58320;48.804;9.252;2024-01-27T11:36:26;13.40;47.70
70734;DHT22;58320;48.804;9.252;2024-01-27T11:38:52;13.50;46.70
70734;DHT22;58320;48.804;9.252;2024-01-27T11:41:28;12.70;48.30
70734;DHT22;58320;48.804;9.252;2024-01-27T11:43:56;12.90;48.20
70734;DHT22;58320;48.804;9.252;2024-01-27T11:46:25;13.70;46.40
70734;DHT22;58320;48.804;9.252;2024-01-27T11:48:51;14.60;45.30
70734;DHT22;58320;48.804;9.252;2024-01-27T11:51:17;15.00;43.50
70734;DHT22;58320;48.804;9.252;2024-01-27T11:53:45;15.50;42.90
70734;DHT22;58320;48.804;9.252;2024-01-27T11:56:11;15.40;42.90
70734;DHT22;58320;48.804;9.252;2024-01-27T11:58:37;15.50;42.30
70734;DHT22;58320;48.804;9.252;2024-01-27T12:01:03;15.00;42.00
70734;DHT22;58320;48.804;9.252;2024-01-27T12:03:29;14.70;44.00
70734;DHT22;58320;48.804;9.252;2024-01-27T12:05:55;15.00;43.30
70734;DHT22;58320;48.804;9.252;2024-01-27T12:08:21;15.30;43.00
70734;DHT22;58320;48.804;9.252;2024-01-27T12:10:47;15.70;43.10
70734;DHT22;58320;48.804;9.252;2024-01-27T12:13:13;15.60;42.40
70734;DHT22;58320;48.804;9.252;2024-01-27T12:15:39;16.00;41.50
70734;DHT22;58320;48.804;9.252;2024-01-27T12:18:05;16.20;41.00
70734;DHT22;58320;48.804;9.252;2024-01-27T12:20:31;16.20;40.60
70734;DHT22;58320;48.804;9.252;2024-01-27T12:23:03;15.60;41.80
70734;DHT22;58320;48.804;9.252;2024-01-27T12:25:30;16.00;41.20
70734;DHT22;58320;48.804;9.252;2024-01-27T12:27:55;16.30;39.90
70734;DHT22;58320;48.804;9.252;2024-01-27T12:30:26;16.10;40.80
70734;DHT22;58320;48.804;9.252;2024-01-27T12:32:52;15.70;41.60
70734;DHT22;58320;48.804;9.252;2024-01-27T12:35:18;15.40;41.90
70734;DHT22;58320;48.804;9.252;2024-01-27T12:37:44;15.80;40.70
70734;DHT22;58320;48.804;9.252;2024-01-27T12:40:21;16.00;40.80
70734;DHT22;58320;48.804;9.252;2024-01-27T12:42:48;14.60;42.10
70734;DHT22;58320;48.804;9.252;2024-01-27T12:45:14;13.80;43.90
70734;DHT22;58320;48.804;9.252;2024-01-27T12:47:40;14.00;43.30
70734;DHT22;58320;48.804;9.252;2024-01-27T12:50:06;14.50;43.00
70734;DHT22;58320;48.804;9.252;2024-01-27T12:52:33;15.10;42.30
70734;DHT22;58320;48.804;9.252;2024-01-27T12:54:58;16.10;40.70
70734;DHT22;58320;48.804;9.252;2024-01-27T12:57:24;16.40;40.70
70734;DHT22;58320;48.804;9.252;2024-01-27T12:59:50;16.90;39.50
70734;DHT22;58320;48.804;9.252;2024-01-27T13:02:16;16.80;39.80
70734;DHT22;58320;48.804;9.252;2024-01-27T13:04:42;16.40;40.00
70734;DHT22;58320;48.804;9.252;2024-01-27T13:07:09;16.50;39.70
70734;DHT22;58320;48.804;9.252;2024-01-27T13:09:36;16.50;40.30
70734;DHT22;58320;48.804;9.252;2024-01-27T13:12:02;17.10;39.30
70734;DHT22;58320;48.804;9.252;2024-01-27T13:14:29;17.40;38.60
70734;DHT22;58320;48.804;9.252;2024-01-27T13:16:55;17.60;38.10
70734;DHT22;58320;48.804;9.252;2024-01-27T13:19:22;17.60;38.20
70734;DHT22;58320;48.804;9.252;2024-01-27T13:21:47;16.70;39.10
70734;DHT22;58320;48.804;9.252;2024-01-27T13:24:13;16.50;40.10
70734;DHT22;58320;48.804;9.252;2024-01-27T13:26:39;16.60;39.70
70734;DHT22;58320;48.804;9.252;2024-01-27T13:29:05;16.90;39.40
70734;DHT22;58320;48.804;9.252;2024-01-27T13:31:31;17.20;39.20
70734;DHT22;58320;48.804;9.252;2024-01-27T13:33:57;16.90;39.30
70734;DHT22;58320;48.804;9.252;2024-01-27T13:36:24;17.00;39.50
70734;DHT22;58320;48.804;9.252;2024-01-27T13:38:50;17.00;39.30
70734;DHT22;58320;48.804;9.252;2024-01-27T13:41:17;16.60;39.60
70734;DHT22;58320;48.804;9.252;2024-01-27T13:43:43;15.60;40.90
70734;DHT22;58320;48.804;9.252;2024-01-27T13:46:09;14.70;42.90
70734;DHT22;58320;48.804;9.252;2024-01-27T13:48:35;14.10;44.20
70734;DHT22;58320;48.804;9.252;2024-01-27T13:51:00;13.50;45.10
70734;DHT22;58320;48.804;9.252;2024-01-27T13:53:26;12.90;45.60
70734;DHT22;58320;48.804;9.252;2024-01-27T13:55:52;12.10;47.50
70734;DHT22;58320;48.804;9.252;2024-01-27T13:58:18;11.30;49.40
70734;DHT22;58320;48.804;9.252;2024-01-27T14:00:44;10.70;50.90
70734;DHT22;58320;48.804;9.252;2024-01-27T14:03:10;10.50;52.00
70734;DHT22;58320;48.804;9.252;2024-01-27T14:05:35;10.40;52.10
70734;DHT22;58320;48.804;9.252;2024-01-27T14:08:04;10.50;51.70
70734;DHT22;58320;48.804;9.252;2024-01-27T14:10:32;10.50;51.30
70734;DHT22;58320;48.804;9.252;2024-01-27T14:12:58;10.40;51.50
70734;DHT22;58320;48.804;9.252;2024-01-27T14:15:23;10.50;52.10
70734;DHT22;58320;48.804;9.252;2024-01-27T14:17:49;10.60;51.70
70734;DHT22;58320;48.804;9.252;2024-01-27T14:20:15;10.90;51.20
70734;DHT22;58320;48.804;9.252;2024-01-27T14:22:41;11.20;50.30
70734;DHT22;58320;48.804;9.252;2024-01-27T14:25:07;11.60;49.20
70734;DHT22;58320;48.804;9.252;2024-01-27T14:27:33;11.80;48.50
70734;DHT22;58320;48.804;9.252;2024-01-27T14:30:00;12.00;47.30
70734;DHT22;58320;48.804;9.252;2024-01-27T14:32:26;11.80;46.80
70734;DHT22;58320;48.804;9.252;2024-01-27T14:34:52;12.00;46.70
70734;DHT22;58320;48.804;9.252;2024-01-27T14:37:18;11.90;45.50
70734;DHT22;58320;48.804;9.252;2024-01-27T14:39:46;12.00;46.00
70734;DHT22;58320;48.804;9.252;2024-01-27T14:42:13;12.00;46.00
70734;DHT22;58320;48.804;9.252;2024-01-27T14:44:39;11.70;46.00
70734;DHT22;58320;48.804;9.252;2024-01-27T14:47:06;11.40;46.80
70734;DHT22;58320;48.804;9.252;2024-01-27T14:49:33;11.20;47.60
70734;DHT22;58320;48.804;9.252;2024-01-27T14:51:59;11.00;47.60
70734;DHT22;58320;48.804;9.252;2024-01-27T14:54:25;10.90;48.30
70734;DHT22;58320;48.804;9.252;2024-01-27T14:56:50;10.90;47.90
70734;DHT22;58320;48.804;9.252;2024-01-27T14:59:16;10.90;48.40
70734;DHT22;58320;48.804;9.252;2024-01-27T15:01:42;10.90;48.00
70734;DHT22;58320;48.804;9.252;2024-01-27T15:04:07;10.80;48.80
70734;DHT22;58320;48.804;9.252;2024-01-27T15:06:33;10.80;47.90
70734;DHT22;58320;48.804;9.252;2024-01-27T15:08:59;10.60;48.60
70734;DHT22;58320;48.804;9.252;2024-01-27T15:11:25;10.50;49.10
70734;DHT22;58320;48.804;9.252;2024-01-27T15:13:51;10.20;49.70
70734;DHT22;58320;48.804;9.252;2024-01-27T15:16:17;9.90;50.10
70734;DHT22;58320;48.804;9.252;2024-01-27T15:18:43;9.60;51.10
70734;DHT22;58320;48.804;9.252;2024-01-27T15:21:10;9.40;52.00
70734;DHT22;58320;48.804;9.252;2024-01-27T15:23:36;9.20;52.70
70734;DHT22;58320;48.804;9.252;2024-01-27T15:26:04;9.10;53.10
70734;DHT22;58320;48.804;9.252;2024-01-27T15:28:31;9.10;53.10
70734;DHT22;58320;48.804;9.252;2024-01-27T15:30:57;9.10;53.30
70734;DHT22;58320;48.804;9.252;2024-01-27T15:33:23;9.00;53.60
70734;DHT22;58320;48.804;9.252;2024-01-27T15:35:49;9.00;53.90
70734;DHT22;58320;48.804;9.252;2024-01-27T15:38:15;8.80;54.20
70734;DHT22;58320;48.804;9.252;2024-01-27T15:40:41;8.60;54.60